createdAt,value
2023-04-24T00:02:46.323Z,99424.59
2023-04-24T00:05:50.070Z,99425.91
2023-04-24T00:08:53.606Z,99433.91
2023-04-24T00:11:57.328Z,99432.88
2023-04-24T00:15:02.485Z,99432.81
2023-04-24T00:18:07.779Z,99430.25
2023-04-24T00:21:11.534Z,99428.59
2023-04-24T00:24:15.118Z,99433.69
2023-04-24T00:27:18.732Z,99431.19
2023-04-24T00:30:22.323Z,99425.50
2023-04-24T00:33:27.463Z,99415.13
2023-04-24T00:36:31.998Z,99414.94
2023-04-24T00:39:35.581Z,99415.19
2023-04-24T00:42:39.326Z,99413.09
2023-04-24T00:45:43.170Z,99417.72
2023-04-24T00:48:48.744Z,99413.72
2023-04-24T00:51:52.408Z,99416.59
2023-04-24T00:54:56.016Z,99426.78
2023-04-24T00:57:59.792Z,99419.13
2023-04-24T01:01:08.427Z,99414.66
2023-04-24T01:04:14.565Z,99421.69
2023-04-24T01:07:19.966Z,99421.09
2023-04-24T01:10:23.652Z,99425.16
2023-04-24T01:13:30.088Z,99422.38
2023-04-24T01:16:35.230Z,99421.41
2023-04-24T01:19:40.605Z,99408.66
2023-04-24T01:22:45.825Z,99406.63
2023-04-24T01:25:50.620Z,99410.41
2023-04-24T01:28:55.967Z,99405.72
2023-04-24T01:31:59.769Z,99428.13
2023-04-24T01:35:04.281Z,99422.06
2023-04-24T01:38:09.425Z,99418.88
2023-04-24T01:41:13.335Z,99420.22
2023-04-24T01:44:17.083Z,99415.66
2023-04-24T01:47:20.806Z,99415.63
2023-04-24T01:50:24.502Z,99417.69
2023-04-24T01:53:29.605Z,99421.28
2023-04-24T01:56:36.092Z,99419.00
2023-04-24T01:59:39.712Z,99416.28
2023-04-24T02:02:46.437Z,99415.06
2023-04-24T02:05:50.195Z,99410.59
2023-04-24T02:08:56.752Z,99412.22
2023-04-24T02:12:00.449Z,99413.19
2023-04-24T02:15:04.156Z,99406.97
2023-04-24T02:18:08.150Z,99395.50
2023-04-24T02:21:11.963Z,99390.81
2023-04-24T02:24:17.128Z,99395.50
2023-04-24T02:27:20.804Z,99396.72
2023-04-24T02:30:24.494Z,99393.59
2023-04-24T02:33:28.188Z,99384.09
2023-04-24T02:36:32.785Z,99381.28
2023-04-24T02:39:37.884Z,99389.47
2023-04-24T02:42:41.599Z,99391.41
2023-04-24T02:45:45.160Z,99388.47
2023-04-24T02:48:48.909Z,99385.91
2023-04-24T02:51:52.538Z,99384.88
2023-04-24T02:54:58.264Z,99384.53
2023-04-24T02:58:01.855Z,99384.31
2023-04-24T03:01:06.155Z,99384.63
2023-04-24T03:04:10.064Z,99385.28
2023-04-24T03:07:13.981Z,99390.38
2023-04-24T03:10:19.295Z,99390.06
2023-04-24T03:13:23.102Z,99385.59
2023-04-24T03:16:27.357Z,99391.72
2023-04-24T03:19:32.272Z,99393.47
2023-04-24T03:22:45.587Z,99396.97
2023-04-24T03:25:50.758Z,99400.22
2023-04-24T03:28:57.577Z,99400.47
2023-04-24T03:32:01.242Z,99401.94
2023-04-24T03:35:05.330Z,99408.28
2023-04-24T03:38:09.164Z,99409.75
2023-04-24T03:41:17.270Z,99416.28
2023-04-24T03:44:27.497Z,99410.06
2023-04-24T03:47:31.180Z,99399.72
2023-04-24T03:50:38.069Z,99401.28
2023-04-24T03:53:44.824Z,99396.22
2023-04-24T03:56:53.164Z,99398.66
2023-04-24T03:59:57.333Z,99406.28
2023-04-24T04:03:02.883Z,99408.59
2023-04-24T04:06:07.214Z,99402.75
2023-04-24T04:09:11.312Z,99414.09
2023-04-24T04:12:16.404Z,99417.13
2023-04-24T04:15:21.096Z,99422.84
2023-04-24T04:18:26.426Z,99430.53
2023-04-24T04:21:30.185Z,99430.72
2023-04-24T04:24:44.144Z,99435.13
2023-04-24T04:27:50.263Z,99429.00
2023-04-24T04:30:55.029Z,99434.13
2023-04-24T04:34:00.776Z,99438.19
2023-04-24T04:37:04.792Z,99437.88
2023-04-24T04:40:28.031Z,99433.00
2023-04-24T04:43:40.868Z,99426.56
2023-04-24T04:46:45.466Z,99436.53
2023-04-24T04:50:05.014Z,99447.97
2023-04-24T04:53:09.665Z,99440.13
2023-04-24T04:56:16.282Z,99434.53
2023-04-24T04:59:24.659Z,99433.44
2023-04-24T05:02:34.603Z,99428.94
2023-04-24T05:05:41.741Z,99430.00
2023-04-24T05:08:49.983Z,99426.00
2023-04-24T05:12:07.401Z,99436.59
2023-04-24T05:15:18.818Z,99422.84
2023-04-24T05:18:22.810Z,99424.44
2023-04-24T05:21:28.048Z,99421.84
2023-04-24T05:24:32.590Z,99416.84
2023-04-24T05:27:51.706Z,99412.53
2023-04-24T05:30:57.712Z,99407.75
2023-04-24T05:34:02.554Z,99401.13
2023-04-24T05:37:09.531Z,99395.28
2023-04-24T05:40:13.785Z,99393.53
2023-04-24T05:43:17.529Z,99387.84
2023-04-24T05:46:23.211Z,99394.53
2023-04-24T05:49:27.568Z,99392.81
2023-04-24T05:52:31.965Z,99392.19
2023-04-24T05:55:37.089Z,99395.78
2023-04-24T05:58:40.865Z,99399.72
2023-04-24T06:01:46.008Z,99394.50
2023-04-24T06:04:54.316Z,99402.19
2023-04-24T06:07:58.163Z,99404.66
2023-04-24T06:11:05.872Z,99403.63
2023-04-24T06:14:10.287Z,99407.19
2023-04-24T06:17:18.623Z,99396.22
2023-04-24T06:20:23.965Z,99399.34
2023-04-24T06:23:28.011Z,99394.88
2023-04-24T06:26:31.896Z,99404.22
2023-04-24T06:29:36.241Z,99396.88
2023-04-24T06:32:42.000Z,99401.94
2023-04-24T06:35:45.829Z,99399.00
2023-04-24T06:38:49.709Z,99399.19
2023-04-24T06:41:53.513Z,99401.31
2023-04-24T06:44:57.765Z,99404.88
2023-04-24T06:48:03.198Z,99403.22
2023-04-24T06:51:07.261Z,99408.16
2023-04-24T06:54:11.102Z,99404.47
2023-04-24T06:57:15.132Z,99409.09
2023-04-24T07:00:19.207Z,99410.25
2023-04-24T07:03:24.723Z,99406.59
2023-04-24T07:06:28.534Z,99409.59
2023-04-24T07:09:33.214Z,99413.94
2023-04-24T07:12:37.116Z,99411.56
2023-04-24T07:15:42.246Z,99417.94
2023-04-24T07:18:47.475Z,99406.59
2023-04-24T07:21:51.475Z,99415.78
2023-04-24T07:24:55.297Z,99404.22
2023-04-24T07:27:59.449Z,99410.75
2023-04-24T07:31:03.279Z,99414.59
2023-04-24T07:34:08.786Z,99415.97
2023-04-24T07:37:12.664Z,99414.44
2023-04-24T07:40:16.636Z,99415.84
2023-04-24T07:43:20.684Z,99410.97
2023-04-24T07:46:24.701Z,99408.28
2023-04-24T07:49:30.369Z,99411.69
2023-04-24T07:52:34.087Z,99399.38
2023-04-24T07:55:37.946Z,99398.50
2023-04-24T07:58:41.701Z,99400.09
2023-04-24T08:01:45.475Z,99391.69
2023-04-24T08:04:50.838Z,99385.72
2023-04-24T08:07:54.804Z,99395.47
2023-04-24T08:10:58.665Z,99394.94
2023-04-24T08:14:02.660Z,99397.50
2023-04-24T08:17:06.481Z,99387.16
2023-04-24T08:20:14.955Z,99387.84
2023-04-24T08:23:18.813Z,99388.91
2023-04-24T08:26:22.775Z,99373.97
2023-04-24T08:29:27.981Z,99370.19
2023-04-24T08:32:31.878Z,99368.09
2023-04-24T08:35:37.178Z,99361.44
2023-04-24T08:38:42.695Z,99363.59
2023-04-24T08:41:47.942Z,99353.63
2023-04-24T08:44:52.662Z,99351.28
2023-04-24T08:47:56.907Z,99344.38
2023-04-24T08:51:02.569Z,99350.09
2023-04-24T08:54:08.510Z,99347.16
2023-04-24T08:57:13.069Z,99332.53
2023-04-24T09:00:17.708Z,99339.25
2023-04-24T09:03:23.870Z,99332.44
2023-04-24T09:06:29.569Z,99331.31
2023-04-24T09:09:35.244Z,99333.53
2023-04-24T09:12:39.052Z,99330.91
2023-04-24T09:15:43.943Z,99334.13
2023-04-24T09:18:47.714Z,99326.31
2023-04-24T09:21:56.391Z,99323.31
2023-04-24T09:25:06.794Z,99327.84
2023-04-24T09:28:10.830Z,99318.31
2023-04-24T09:31:17.753Z,99332.06
2023-04-24T09:34:25.158Z,99306.84
2023-04-24T09:37:37.361Z,99301.06
2023-04-24T09:40:42.681Z,99312.16
2023-04-24T09:43:46.444Z,99301.66
2023-04-24T09:46:53.211Z,99299.72
2023-04-24T09:50:00.544Z,99299.47
2023-04-24T09:53:10.083Z,99295.78
2023-04-24T09:56:14.447Z,99275.41
2023-04-24T09:59:19.975Z,99271.84
2023-04-24T10:02:23.814Z,99285.13
2023-04-24T10:05:30.889Z,99281.31
2023-04-24T10:08:38.974Z,99285.53
2023-04-24T10:11:46.493Z,99278.38
2023-04-24T10:14:52.465Z,99279.06
2023-04-24T10:17:56.562Z,99270.47
2023-04-24T10:21:02.344Z,99266.06
2023-04-24T10:24:09.056Z,99257.81
2023-04-24T10:27:12.946Z,99249.56
2023-04-24T10:30:17.567Z,99245.88
2023-04-24T10:33:21.636Z,99246.25
2023-04-24T10:36:28.587Z,99244.59
2023-04-24T10:39:34.824Z,99236.72
2023-04-24T10:42:43.091Z,99234.34
2023-04-24T10:46:04.116Z,99222.03
2023-04-24T10:49:10.118Z,99225.22
2023-04-24T10:52:14.388Z,99209.97
2023-04-24T10:55:39.816Z,99219.66
2023-04-24T10:58:46.239Z,99210.91
2023-04-24T11:01:55.698Z,99208.94
2023-04-24T11:04:59.571Z,99202.97
2023-04-24T11:08:17.959Z,99201.56
2023-04-24T11:11:23.353Z,99202.47
2023-04-24T11:14:27.081Z,99199.22
2023-04-24T11:17:35.265Z,99191.41
2023-04-24T11:20:39.141Z,99187.25
2023-04-24T11:23:43.288Z,99183.25
2023-04-24T11:26:48.620Z,99180.16
2023-04-24T11:30:02.919Z,99167.09
2023-04-24T11:33:07.896Z,99169.28
2023-04-24T11:36:11.908Z,99165.47
2023-04-24T11:39:16.264Z,99163.06
2023-04-24T11:42:24.017Z,99156.25
2023-04-24T11:45:29.793Z,99154.88
2023-04-24T11:48:41.336Z,99140.34
2023-04-24T11:51:53.290Z,99149.69
2023-04-24T11:54:58.345Z,99126.16
2023-04-24T11:58:03.810Z,99129.09
2023-04-24T12:01:07.989Z,99115.78
2023-04-24T12:04:12.456Z,99104.28
2023-04-24T12:07:16.483Z,99110.41
2023-04-24T12:10:23.374Z,99100.72
2023-04-24T12:13:29.764Z,99093.94
2023-04-24T12:16:35.949Z,99062.78
2023-04-24T12:19:39.861Z,99071.72
2023-04-24T12:22:48.264Z,99062.78
2023-04-24T12:25:54.526Z,99056.34
2023-04-24T12:29:05.909Z,99056.97
2023-04-24T12:32:18.939Z,99033.34
2023-04-24T12:35:24.052Z,99036.38
2023-04-24T12:38:30.829Z,99031.75
2023-04-24T12:41:34.661Z,99030.34
2023-04-24T12:44:39.932Z,99020.31
2023-04-24T12:47:45.210Z,99021.19
2023-04-24T12:50:49.046Z,99011.69
2023-04-24T12:53:56.018Z,98995.72
2023-04-24T12:57:00.391Z,98994.28
2023-04-24T13:00:07.243Z,99000.50
2023-04-24T13:03:11.304Z,98984.47
2023-04-24T13:06:15.229Z,98987.75
2023-04-24T13:09:18.978Z,98991.56
2023-04-24T13:12:25.070Z,98979.94
2023-04-24T13:15:30.331Z,98979.44
2023-04-24T13:18:34.046Z,98978.00
2023-04-24T13:21:37.877Z,98968.03
2023-04-24T13:24:42.977Z,98972.66
2023-04-24T13:27:46.871Z,98975.50
2023-04-24T13:30:52.469Z,98967.81
2023-04-24T13:33:56.758Z,98973.72
2023-04-24T13:37:01.072Z,98972.25
2023-04-24T13:40:07.271Z,98969.25
2023-04-24T13:43:11.260Z,98973.13
2023-04-24T13:46:16.389Z,98961.34
2023-04-24T13:49:20.585Z,98958.09
2023-04-24T13:52:24.455Z,98956.84
2023-04-24T13:55:28.280Z,98947.06
2023-04-24T13:58:32.139Z,98944.25
2023-04-24T14:01:37.986Z,98936.72
2023-04-24T14:04:42.116Z,98932.00
2023-04-24T14:07:46.127Z,98927.56
2023-04-24T14:10:50.373Z,98922.50
2023-04-24T14:13:54.182Z,98919.31
2023-04-24T14:16:59.721Z,98915.59
2023-04-24T14:20:04.738Z,98912.38
2023-04-24T14:23:08.622Z,98911.66
2023-04-24T14:26:12.392Z,98910.81
2023-04-24T14:29:16.353Z,98912.78
2023-04-24T14:32:21.558Z,98912.47
2023-04-24T14:35:25.464Z,98901.38
2023-04-24T14:38:29.195Z,98896.22
2023-04-24T14:41:33.053Z,98906.88
2023-04-24T14:44:36.819Z,98909.31
2023-04-24T14:47:42.191Z,98902.91
2023-04-24T14:50:46.479Z,98911.81
2023-04-24T14:53:50.343Z,98898.97
2023-04-24T14:56:54.251Z,98898.22
2023-04-24T14:59:58.098Z,98896.78
2023-04-24T15:03:03.858Z,98889.34
2023-04-24T15:06:08.375Z,98891.13
2023-04-24T15:09:12.165Z,98892.16
2023-04-24T15:12:16.331Z,98887.84
2023-04-24T15:15:20.125Z,98882.97
2023-04-24T15:18:25.436Z,98880.75
2023-04-24T15:21:29.221Z,98871.25
2023-04-24T15:24:33.004Z,98869.44
2023-04-24T15:27:46.929Z,98861.31
2023-04-24T15:30:50.982Z,98858.44
2023-04-24T15:33:56.485Z,98855.91
2023-04-24T15:37:00.229Z,98852.66
2023-04-24T15:40:05.440Z,98852.41
2023-04-24T15:43:09.176Z,98846.47
2023-04-24T15:46:13.260Z,98847.22
2023-04-24T15:49:18.937Z,98839.03
2023-04-24T15:52:23.082Z,98835.84
2023-04-24T15:55:27.143Z,98835.50
2023-04-24T15:58:31.208Z,98833.06
2023-04-24T16:01:35.299Z,98837.03
2023-04-24T16:04:40.865Z,98833.66
2023-04-24T16:07:44.786Z,98832.28
2023-04-24T16:10:48.695Z,98835.88
2023-04-24T16:13:52.637Z,98827.34
2023-04-24T16:16:56.882Z,98835.25
2023-04-24T16:20:02.200Z,98823.03
2023-04-24T16:23:06.190Z,98818.97
2023-04-24T16:26:10.150Z,98817.13
2023-04-24T16:29:15.730Z,98810.53
2023-04-24T16:32:19.813Z,98806.97
2023-04-24T16:35:25.301Z,98789.28
2023-04-24T16:38:29.103Z,98795.06
2023-04-24T16:41:33.054Z,98799.00
2023-04-24T16:44:36.755Z,98805.00
2023-04-24T16:47:40.589Z,98805.53
2023-04-24T16:50:46.373Z,98801.69
2023-04-24T16:53:50.264Z,98807.34
2023-04-24T16:56:55.450Z,98805.00
2023-04-24T16:59:59.255Z,98798.22
2023-04-24T17:03:03.162Z,98804.34
2023-04-24T17:06:09.056Z,98810.09
2023-04-24T17:09:13.501Z,98814.84
2023-04-24T17:12:17.422Z,98822.91
2023-04-24T17:15:21.208Z,98818.53
2023-04-24T17:18:25.915Z,98818.47
2023-04-24T17:21:31.872Z,98819.28
2023-04-24T17:24:35.716Z,98823.06
2023-04-24T17:27:39.683Z,98818.66
2023-04-24T17:30:43.558Z,98812.69
2023-04-24T17:33:47.464Z,98818.50
2023-04-24T17:36:52.790Z,98812.63
2023-04-24T17:39:56.602Z,98819.31
2023-04-24T17:43:00.760Z,98824.09
2023-04-24T17:46:04.879Z,98820.94
2023-04-24T17:49:08.799Z,98815.53
2023-04-24T17:52:14.755Z,98825.72
2023-04-24T17:55:18.652Z,98823.44
2023-04-24T17:58:22.570Z,98827.31
2023-04-24T18:01:28.162Z,98835.94
2023-04-24T18:04:32.219Z,98831.75
2023-04-24T18:07:37.700Z,98831.41
2023-04-24T18:10:44.759Z,98818.09
2023-04-24T18:13:49.798Z,98829.59
2023-04-24T18:16:53.654Z,98838.72
2023-04-24T18:19:57.580Z,98850.41
2023-04-24T18:23:03.905Z,98855.50
2023-04-24T18:26:07.644Z,98864.50
2023-04-24T18:29:11.352Z,98873.19
2023-04-24T18:32:15.240Z,98876.22
2023-04-24T18:35:19.413Z,98875.56
2023-04-24T18:38:26.191Z,98887.22
2023-04-24T18:41:30.043Z,98884.00
2023-04-24T18:44:33.863Z,98893.06
2023-04-24T18:47:37.781Z,98892.69
2023-04-24T18:50:42.089Z,98888.38
2023-04-24T18:53:47.236Z,98886.38
2023-04-24T18:56:51.795Z,98877.50
2023-04-24T18:59:55.554Z,98870.53
2023-04-24T19:02:59.441Z,98871.44
2023-04-24T19:06:03.387Z,98866.78
2023-04-24T19:09:08.686Z,98871.31
2023-04-24T19:12:12.476Z,98868.31
2023-04-24T19:15:16.539Z,98877.81
2023-04-24T19:18:20.352Z,98877.56
2023-04-24T19:21:24.308Z,98879.22
2023-04-24T19:24:30.234Z,98885.78
2023-04-24T19:27:34.013Z,98887.59
2023-04-24T19:30:38.730Z,98887.19
2023-04-24T19:33:42.440Z,98890.06
2023-04-24T19:36:46.271Z,98887.03
2023-04-24T19:39:51.621Z,98888.84
2023-04-24T19:42:55.454Z,98894.75
2023-04-24T19:45:59.495Z,98900.03
2023-04-24T19:49:03.431Z,98904.13
2023-04-24T19:52:07.293Z,98903.28
2023-04-24T19:55:13.030Z,98900.03
2023-04-24T19:58:16.912Z,98901.69
2023-04-24T20:01:21.141Z,98906.31
2023-04-24T20:04:25.232Z,98906.16
2023-04-24T20:07:29.206Z,98912.44
2023-04-24T20:10:34.585Z,98902.09
2023-04-24T20:13:38.686Z,98913.88
2023-04-24T20:16:42.447Z,98917.31
2023-04-24T20:19:46.765Z,98920.38
2023-04-24T20:22:50.584Z,98922.41
2023-04-24T20:25:58.635Z,98929.28
2023-04-24T20:29:02.444Z,98926.84
2023-04-24T20:32:06.816Z,98944.31
2023-04-24T20:35:12.164Z,98949.59
2023-04-24T20:38:15.998Z,98950.16
2023-04-24T20:41:21.480Z,98963.97
2023-04-24T20:44:25.452Z,98965.81
2023-04-24T20:47:29.661Z,98973.50
2023-04-24T20:50:34.175Z,98993.00
2023-04-24T20:53:38.075Z,98994.22
2023-04-24T20:56:43.365Z,99000.13
2023-04-24T20:59:47.599Z,99010.47
2023-04-24T21:02:51.543Z,99008.84
2023-04-24T21:05:55.495Z,99016.56
2023-04-24T21:08:59.275Z,99023.06
2023-04-24T21:12:04.624Z,99029.56
2023-04-24T21:15:09.293Z,99049.25
2023-04-24T21:18:13.204Z,99051.91
2023-04-24T21:21:17.041Z,99059.63
2023-04-24T21:24:20.791Z,99060.22
2023-04-24T21:27:26.045Z,99063.44
2023-04-24T21:30:29.828Z,99059.63
2023-04-24T21:33:33.856Z,99070.94
2023-04-24T21:36:37.647Z,99071.56
2023-04-24T21:39:41.402Z,99068.94
2023-04-24T21:42:46.748Z,99077.06
2023-04-24T21:45:52.657Z,99081.94
2023-04-24T21:48:56.485Z,99081.94
2023-04-24T21:52:00.119Z,99076.06
2023-04-24T21:55:03.989Z,99070.56
2023-04-24T21:58:09.338Z,99064.28
2023-04-24T22:01:15.751Z,99053.13
2023-04-24T22:04:19.710Z,99040.06
2023-04-24T22:07:23.839Z,99023.09
2023-04-24T22:10:28.684Z,99029.81
2023-04-24T22:13:33.967Z,99025.81
2023-04-24T22:16:37.968Z,99025.03
2023-04-24T22:19:42.496Z,99017.03
2023-04-24T22:22:46.454Z,99014.97
2023-04-24T22:25:50.140Z,99006.53
2023-04-24T22:28:55.349Z,99000.81
2023-04-24T22:31:59.213Z,98990.72
2023-04-24T22:35:02.987Z,98986.03
2023-04-24T22:38:06.714Z,98987.69
2023-04-24T22:41:10.589Z,98975.84
2023-04-24T22:44:15.770Z,98976.03
2023-04-24T22:47:20.334Z,98974.16
2023-04-24T22:50:24.250Z,98975.66
2023-04-24T22:54:08.080Z,98969.41
2023-04-24T22:57:18.943Z,98963.47
2023-04-24T23:00:24.506Z,98956.78
2023-04-24T23:03:28.801Z,98947.75
2023-04-24T23:06:32.685Z,98940.41
2023-04-24T23:09:36.426Z,98932.53
2023-04-24T23:12:40.200Z,98937.53
2023-04-24T23:15:45.683Z,98938.31
2023-04-24T23:18:49.208Z,98925.06
2023-04-24T23:21:52.881Z,98916.16
2023-04-24T23:24:56.707Z,98919.84
2023-04-24T23:28:00.310Z,98908.50
2023-04-24T23:31:05.377Z,98909.66
2023-04-24T23:34:09.081Z,98893.63
2023-04-24T23:37:13.332Z,98891.53
2023-04-24T23:40:17.049Z,98881.59
2023-04-24T23:43:20.704Z,98868.06
2023-04-24T23:46:25.874Z,98865.59
2023-04-24T23:49:29.400Z,98857.19
2023-04-24T23:52:33.126Z,98852.75
2023-04-24T23:55:36.888Z,98844.97
2023-04-24T23:58:40.634Z,98838.50
